createdAt,value
2022-08-27T00:00:45.915Z,8.77
2022-08-27T00:03:13.041Z,9.23
2022-08-27T00:05:40.623Z,9.93
2022-08-27T00:08:09.643Z,9.60
2022-08-27T00:10:36.736Z,9.32
2022-08-27T00:13:04.127Z,9.63
2022-08-27T00:15:32.054Z,9.40
2022-08-27T00:17:59.035Z,9.60
2022-08-27T00:20:27.535Z,10.35
2022-08-27T00:22:54.915Z,9.65
2022-08-27T00:25:22.688Z,8.30
2022-08-27T00:27:49.782Z,9.57
2022-08-27T00:30:19.227Z,9.25
2022-08-27T00:32:46.247Z,8.73
2022-08-27T00:35:16.010Z,8.95
2022-08-27T00:37:43.655Z,8.70
2022-08-27T00:40:15.105Z,9.85
2022-08-27T00:42:42.686Z,8.95
2022-08-27T00:45:10.070Z,9.30
2022-08-27T00:47:42.840Z,11.80
2022-08-27T00:50:16.031Z,9.63
2022-08-27T00:52:54.396Z,9.57
2022-08-27T00:55:27.414Z,8.52
2022-08-27T00:58:12.607Z,10.60
2022-08-27T01:00:39.729Z,8.48
2022-08-27T01:03:07.170Z,9.35
2022-08-27T01:05:36.974Z,10.35
2022-08-27T01:08:10.063Z,9.25
2022-08-27T01:10:38.648Z,9.43
2022-08-27T01:13:08.662Z,9.85
2022-08-27T01:15:36.137Z,8.65
2022-08-27T01:18:07.520Z,9.88
2022-08-27T01:20:51.163Z,10.18
2022-08-27T01:23:27.261Z,9.88
2022-08-27T01:25:54.558Z,8.43
2022-08-27T01:28:23.720Z,9.77
2022-08-27T01:30:58.610Z,8.98
2022-08-27T01:33:25.517Z,10.57
2022-08-27T01:35:52.961Z,9.57
2022-08-27T01:38:30.348Z,9.20
2022-08-27T01:41:00.334Z,9.80
2022-08-27T01:43:29.354Z,9.55
2022-08-27T01:45:56.292Z,10.65
2022-08-27T01:48:23.293Z,9.45
2022-08-27T01:50:50.800Z,10.32
2022-08-27T01:53:24.419Z,10.98
2022-08-27T01:55:52.883Z,10.60
2022-08-27T01:58:23.096Z,10.57
2022-08-27T02:00:56.230Z,9.50
2022-08-27T02:03:23.999Z,9.77
2022-08-27T02:05:51.926Z,11.95
2022-08-27T02:08:19.590Z,11.63
2022-08-27T02:10:48.265Z,9.48
2022-08-27T02:13:16.594Z,10.35
2022-08-27T02:15:44.497Z,9.82
2022-08-27T02:18:12.413Z,10.38
2022-08-27T02:20:39.796Z,10.57
2022-08-27T02:23:07.460Z,9.48
2022-08-27T02:25:34.447Z,10.95
2022-08-27T02:28:01.969Z,9.88
2022-08-27T02:30:32.147Z,10.15
2022-08-27T02:33:01.109Z,11.57
2022-08-27T02:35:29.810Z,10.23
2022-08-27T02:37:57.547Z,10.77
2022-08-27T02:40:25.887Z,10.88
2022-08-27T02:42:52.977Z,11.88
2022-08-27T02:45:20.859Z,9.98
2022-08-27T02:47:48.696Z,10.73
2022-08-27T02:50:16.024Z,10.07
2022-08-27T02:52:46.269Z,9.70
2022-08-27T02:55:14.560Z,10.57
2022-08-27T02:57:45.070Z,11.18
2022-08-27T03:00:15.669Z,9.73
2022-08-27T03:02:42.910Z,10.10
2022-08-27T03:05:11.899Z,9.95
2022-08-27T03:07:40.360Z,10.98
2022-08-27T03:10:08.396Z,10.30
2022-08-27T03:12:36.536Z,10.18
2022-08-27T03:15:10.011Z,9.10
2022-08-27T03:17:55.671Z,11.45
2022-08-27T03:20:23.349Z,10.73
2022-08-27T03:22:50.262Z,11.07
2022-08-27T03:25:17.630Z,10.60
2022-08-27T03:27:44.621Z,10.30
2022-08-27T03:30:16.177Z,10.95
2022-08-27T03:32:43.636Z,9.52
2022-08-27T03:35:11.828Z,9.90
2022-08-27T03:37:39.151Z,9.30
2022-08-27T03:40:08.174Z,10.20
2022-08-27T03:42:35.942Z,10.18
2022-08-27T03:45:03.987Z,10.75
2022-08-27T03:47:32.259Z,9.15
2022-08-27T03:50:02.564Z,9.60
2022-08-27T03:54:58.525Z,9.73
2022-08-27T03:57:25.612Z,9.85
2022-08-27T03:59:54.418Z,10.88
2022-08-27T04:02:21.765Z,11.27
2022-08-27T04:04:48.846Z,11.15
2022-08-27T04:07:16.594Z,11.40
2022-08-27T04:09:43.513Z,11.88
2022-08-27T04:12:11.590Z,10.27
2022-08-27T04:14:38.638Z,10.80
2022-08-27T04:17:06.504Z,11.13
2022-08-27T04:19:35.194Z,10.20
2022-08-27T04:22:06.803Z,10.50
2022-08-27T04:24:36.481Z,10.77
2022-08-27T04:27:04.532Z,10.95
2022-08-27T04:29:31.907Z,13.70
2022-08-27T04:31:59.452Z,11.02
2022-08-27T04:34:26.671Z,12.07
2022-08-27T04:36:56.870Z,10.77
2022-08-27T04:39:25.930Z,11.52
2022-08-27T04:41:55.523Z,11.30
2022-08-27T04:44:23.162Z,11.32
2022-08-27T04:46:54.493Z,11.35
2022-08-27T04:49:21.468Z,11.88
2022-08-27T04:51:48.437Z,12.63
2022-08-27T04:54:15.674Z,12.20
2022-08-27T04:56:44.241Z,12.35
2022-08-27T04:59:11.433Z,12.25
2022-08-27T05:01:40.405Z,11.77
2022-08-27T05:04:08.091Z,12.07
2022-08-27T05:06:36.682Z,11.07
2022-08-27T05:09:05.684Z,10.50
2022-08-27T05:11:34.640Z,10.52
2022-08-27T05:14:04.142Z,10.35
2022-08-27T05:16:32.186Z,12.35
2022-08-27T05:18:59.989Z,10.43
2022-08-27T05:21:31.837Z,10.80
2022-08-27T05:24:00.951Z,11.13
2022-08-27T05:26:29.106Z,10.38
2022-08-27T05:28:58.754Z,10.00
2022-08-27T05:31:25.985Z,13.00
2022-08-27T05:33:56.059Z,9.63
2022-08-27T05:36:33.726Z,10.70
2022-08-27T05:39:04.821Z,11.35
2022-08-27T05:41:34.466Z,10.30
2022-08-27T05:44:36.738Z,9.63
2022-08-27T05:46:56.439Z,9.43
2022-08-27T05:49:23.462Z,10.25
2022-08-27T05:51:50.785Z,9.57
2022-08-27T05:54:20.926Z,9.65
2022-08-27T05:56:50.117Z,9.93
2022-08-27T05:59:36.718Z,9.13
2022-08-27T06:02:06.078Z,10.45
2022-08-27T06:04:33.559Z,9.05
2022-08-27T06:07:00.743Z,9.27
2022-08-27T06:09:31.539Z,8.18
2022-08-27T06:12:00.249Z,8.50
2022-08-27T06:14:27.309Z,8.55
2022-08-27T06:16:54.752Z,7.93
2022-08-27T06:19:22.610Z,8.00
2022-08-27T06:22:01.048Z,8.20
2022-08-27T06:24:36.820Z,8.05
2022-08-27T06:27:03.897Z,7.90
2022-08-27T06:29:31.051Z,7.50
2022-08-27T06:31:58.017Z,9.93
2022-08-27T06:34:24.983Z,8.10
2022-08-27T06:36:53.448Z,7.00
2022-08-27T06:39:20.666Z,7.57
2022-08-27T06:41:50.400Z,7.93
2022-08-27T06:44:22.173Z,7.93
2022-08-27T06:46:49.187Z,7.25
2022-08-27T06:49:16.688Z,6.55
2022-08-27T06:51:47.922Z,6.70
2022-08-27T06:54:15.953Z,6.85
2022-08-27T06:56:44.707Z,7.82
2022-08-27T06:59:15.609Z,6.40
2022-08-27T07:01:47.500Z,6.43
2022-08-27T07:04:19.713Z,6.65
2022-08-27T07:06:46.888Z,6.30
2022-08-27T07:09:14.337Z,6.38
2022-08-27T07:11:41.612Z,6.35
2022-08-27T07:14:08.986Z,7.55
2022-08-27T07:16:36.650Z,7.40
2022-08-27T07:19:06.192Z,7.47
2022-08-27T07:21:35.095Z,6.28
2022-08-27T07:24:05.156Z,7.50
2022-08-27T07:29:02.188Z,7.10
2022-08-27T07:31:29.265Z,6.72
2022-08-27T07:33:56.237Z,6.90
2022-08-27T07:36:24.112Z,7.43
2022-08-27T07:38:56.650Z,10.32
2022-08-27T07:41:30.775Z,7.00
2022-08-27T07:46:48.193Z,6.65
2022-08-27T07:49:16.440Z,6.88
2022-08-27T07:51:44.025Z,6.47
2022-08-27T07:54:11.039Z,7.60
2022-08-27T07:56:38.074Z,7.55
2022-08-27T07:59:05.030Z,6.55
2022-08-27T08:01:32.310Z,5.82
2022-08-27T08:03:59.311Z,6.25
2022-08-27T08:06:26.633Z,6.35
2022-08-27T08:08:53.658Z,6.10
2022-08-27T08:11:20.625Z,5.63
2022-08-27T08:13:48.233Z,7.50
2022-08-27T08:16:15.759Z,5.60
2022-08-27T08:18:42.745Z,6.60
2022-08-27T08:21:12.840Z,5.50
2022-08-27T08:26:08.408Z,4.93
2022-08-27T08:28:36.087Z,5.55
2022-08-27T08:31:03.821Z,5.15
2022-08-27T08:33:31.670Z,5.57
2022-08-27T08:36:15.013Z,4.82
2022-08-27T08:38:43.049Z,4.15
2022-08-27T08:41:28.251Z,6.10
2022-08-27T08:44:03.503Z,5.30
2022-08-27T08:46:53.164Z,4.10
2022-08-27T08:49:33.245Z,5.55
2022-08-27T08:52:31.445Z,3.90
2022-08-27T08:55:08.640Z,5.25
2022-08-27T08:58:08.916Z,4.65
2022-08-27T09:00:37.497Z,3.97
2022-08-27T09:03:04.473Z,4.90
2022-08-27T09:05:31.421Z,3.97
2022-08-27T09:08:34.043Z,4.97
2022-08-27T09:11:26.871Z,4.70
2022-08-27T09:14:01.830Z,4.10
2022-08-27T09:16:29.741Z,3.50
2022-08-27T09:18:56.831Z,4.00
2022-08-27T09:21:29.664Z,4.32
2022-08-27T09:24:04.883Z,3.78
2022-08-27T09:26:37.205Z,3.92
2022-08-27T09:29:17.352Z,3.35
2022-08-27T09:32:00.031Z,3.53
2022-08-27T09:34:34.773Z,3.83
2022-08-27T09:37:34.742Z,2.92
2022-08-27T09:40:23.215Z,2.70
2022-08-27T09:43:06.435Z,2.85
2022-08-27T09:45:34.771Z,2.70
2022-08-27T09:48:15.084Z,3.28
2022-08-27T09:50:49.365Z,2.92
2022-08-27T09:53:26.350Z,3.90
2022-08-27T09:55:59.307Z,3.28
2022-08-27T09:58:30.486Z,3.65
2022-08-27T10:03:33.596Z,3.33
2022-08-27T10:06:01.011Z,4.28
2022-08-27T10:08:45.731Z,3.35
2022-08-27T10:11:48.285Z,5.03
2022-08-27T10:14:31.233Z,3.63
2022-08-27T10:17:08.818Z,3.10
2022-08-27T10:19:55.023Z,3.35
2022-08-27T10:22:43.883Z,3.20
2022-08-27T10:25:19.921Z,3.05
2022-08-27T10:27:46.925Z,4.22
2022-08-27T10:30:20.732Z,4.93
2022-08-27T10:33:31.759Z,5.03
2022-08-27T10:36:40.876Z,5.40
2022-08-27T10:39:32.341Z,5.65
2022-08-27T10:42:24.340Z,5.32
2022-08-27T10:45:05.033Z,4.55
2022-08-27T10:47:40.872Z,5.90
2022-08-27T10:50:17.758Z,5.90
2022-08-27T10:53:00.568Z,5.55
2022-08-27T10:55:33.362Z,4.68
2022-08-27T10:58:15.723Z,6.43
2022-08-27T11:00:54.808Z,3.97
2022-08-27T11:03:34.536Z,4.32
2022-08-27T11:08:50.010Z,3.85
2022-08-27T11:15:01.058Z,3.42
2022-08-27T11:18:02.742Z,5.60
2022-08-27T11:20:36.502Z,3.80
2022-08-27T11:23:12.238Z,4.03
2022-08-27T11:25:50.636Z,4.00
2022-08-27T11:28:21.420Z,6.97
2022-08-27T11:31:11.820Z,5.93
2022-08-27T11:34:27.052Z,5.20
2022-08-27T11:36:54.408Z,5.18
2022-08-27T11:39:51.142Z,6.68
2022-08-27T11:42:41.287Z,5.18
2022-08-27T11:45:30.961Z,5.82
2022-08-27T11:48:01.271Z,5.03
2022-08-27T11:50:31.196Z,5.68
2022-08-27T11:53:05.971Z,6.50
2022-08-27T11:55:38.694Z,6.00
2022-08-27T11:58:29.126Z,5.63
2022-08-27T12:01:02.256Z,5.32
2022-08-27T12:03:33.933Z,5.55
2022-08-27T12:06:05.673Z,5.63
2022-08-27T12:11:04.969Z,5.90
2022-08-27T12:13:46.564Z,6.13
2022-08-27T12:16:25.842Z,4.80
2022-08-27T12:19:06.403Z,6.18
2022-08-27T12:22:08.077Z,5.78
2022-08-27T12:24:52.298Z,5.55
2022-08-27T12:27:25.791Z,5.55
2022-08-27T12:30:15.528Z,6.15
2022-08-27T12:32:44.932Z,5.28
2022-08-27T12:35:37.580Z,6.55
2022-08-27T12:38:13.859Z,5.43
2022-08-27T12:40:51.896Z,4.78
2022-08-27T12:43:20.570Z,6.32
2022-08-27T12:45:55.488Z,5.53
2022-08-27T12:48:26.399Z,4.70
2022-08-27T12:50:56.286Z,5.32
2022-08-27T12:53:29.523Z,5.80
2022-08-27T12:56:10.795Z,5.18
2022-08-27T12:59:16.027Z,6.70
2022-08-27T13:01:55.384Z,5.82
2022-08-27T13:04:25.935Z,6.20
2022-08-27T13:06:53.323Z,6.50
2022-08-27T13:09:33.935Z,5.25
2022-08-27T13:12:03.394Z,6.20
2022-08-27T13:14:39.126Z,5.85
2022-08-27T13:17:18.585Z,5.40
2022-08-27T13:20:02.114Z,7.38
2022-08-27T13:22:40.868Z,5.13
2022-08-27T13:25:30.889Z,4.88
2022-08-27T13:30:35.486Z,8.15
2022-08-27T13:33:05.818Z,5.88
2022-08-27T13:35:33.491Z,4.75
2022-08-27T13:38:02.518Z,4.43
2022-08-27T13:40:38.677Z,5.53
2022-08-27T13:43:09.965Z,5.55
2022-08-27T13:45:40.671Z,5.32
2022-08-27T13:48:08.687Z,5.70
2022-08-27T13:50:37.223Z,5.15
2022-08-27T13:53:31.240Z,5.07
2022-08-27T13:55:59.285Z,6.10
2022-08-27T13:58:30.886Z,5.03
2022-08-27T14:01:26.641Z,3.30
2022-08-27T14:04:06.551Z,4.47
2022-08-27T14:09:19.651Z,3.38
2022-08-27T14:11:48.056Z,5.13
2022-08-27T14:14:17.833Z,5.80
2022-08-27T14:16:44.849Z,5.13
2022-08-27T14:19:25.727Z,3.90
2022-08-27T14:21:53.271Z,3.47
2022-08-27T14:24:20.532Z,3.28
2022-08-27T14:26:56.306Z,5.40
2022-08-27T14:29:23.311Z,3.80
2022-08-27T14:31:50.321Z,5.28
2022-08-27T14:34:17.277Z,4.45
2022-08-27T14:36:44.537Z,4.00
2022-08-27T14:39:13.045Z,3.67
2022-08-27T14:41:40.287Z,3.80
2022-08-27T14:44:07.300Z,4.55
2022-08-27T14:46:41.481Z,4.43
2022-08-27T14:49:17.709Z,4.57
2022-08-27T14:51:46.190Z,3.60
2022-08-27T14:54:13.264Z,3.90
2022-08-27T14:56:41.547Z,3.65
2022-08-27T14:59:08.497Z,3.83
2022-08-27T15:01:38.216Z,3.83
2022-08-27T15:06:32.757Z,4.60
2022-08-27T15:09:00.703Z,4.22
2022-08-27T15:11:31.858Z,4.60
2022-08-27T15:14:00.840Z,4.78
2022-08-27T15:16:39.018Z,4.30
2022-08-27T15:19:08.126Z,4.05
2022-08-27T15:21:37.162Z,4.22
2022-08-27T15:24:15.685Z,4.13
2022-08-27T15:26:42.623Z,3.65
2022-08-27T15:29:09.883Z,4.47
2022-08-27T15:31:37.238Z,4.25
2022-08-27T15:34:04.274Z,3.72
2022-08-27T15:36:31.208Z,3.67
2022-08-27T15:38:58.208Z,4.50
2022-08-27T15:41:29.015Z,4.53
2022-08-27T15:43:56.879Z,4.13
2022-08-27T15:46:25.590Z,4.10
2022-08-27T15:48:53.914Z,5.40
2022-08-27T15:51:27.844Z,3.75
2022-08-27T15:53:55.072Z,4.28
2022-08-27T15:56:23.465Z,4.32
2022-08-27T15:58:50.863Z,4.53
2022-08-27T16:01:31.385Z,4.47
2022-08-27T16:03:59.792Z,4.55
2022-08-27T16:06:27.650Z,4.05
2022-08-27T16:08:54.551Z,3.95
2022-08-27T16:11:22.829Z,4.10
2022-08-27T16:13:50.801Z,5.88
2022-08-27T16:16:22.765Z,4.40
2022-08-27T16:18:49.713Z,4.53
2022-08-27T16:21:16.701Z,4.05
2022-08-27T16:23:43.650Z,3.30
2022-08-27T16:26:10.502Z,4.63
2022-08-27T16:28:37.603Z,4.68
2022-08-27T16:31:05.342Z,4.30
2022-08-27T16:33:39.633Z,4.78
2022-08-27T16:36:07.153Z,4.28
2022-08-27T16:38:34.038Z,4.20
2022-08-27T16:41:00.991Z,4.47
2022-08-27T16:43:28.572Z,3.90
2022-08-27T16:45:58.853Z,3.97
2022-08-27T16:48:45.245Z,4.22
2022-08-27T16:51:21.946Z,4.05
2022-08-27T16:53:49.938Z,3.83
2022-08-27T16:56:20.308Z,4.07
2022-08-27T16:58:48.946Z,3.75
2022-08-27T17:01:19.771Z,3.72
2022-08-27T17:04:09.672Z,3.72
2022-08-27T17:06:41.032Z,3.92
2022-08-27T17:09:10.388Z,4.97
2022-08-27T17:11:41.735Z,4.72
2022-08-27T17:14:10.879Z,4.10
2022-08-27T17:16:38.042Z,5.00
2022-08-27T17:19:06.501Z,4.50
2022-08-27T17:21:34.859Z,3.80
2022-08-27T17:24:02.611Z,4.20
2022-08-27T17:26:31.544Z,4.13
2022-08-27T17:28:59.371Z,4.40
2022-08-27T17:31:31.023Z,3.70
2022-08-27T17:33:59.820Z,4.63
2022-08-27T17:36:28.689Z,4.25
2022-08-27T17:38:56.268Z,4.90
2022-08-27T17:41:33.842Z,4.82
2022-08-27T17:44:05.181Z,4.15
2022-08-27T17:46:32.616Z,4.40
2022-08-27T17:48:59.810Z,4.53
2022-08-27T17:51:27.974Z,5.93
2022-08-27T17:54:00.808Z,5.13
2022-08-27T17:56:29.183Z,4.47
2022-08-27T17:58:56.484Z,4.10
2022-08-27T18:01:32.033Z,3.80
2022-08-27T18:03:59.538Z,5.40
2022-08-27T18:06:27.788Z,4.57
2022-08-27T18:08:54.920Z,6.05
2022-08-27T18:11:22.636Z,4.95
2022-08-27T18:13:54.626Z,4.68
2022-08-27T18:16:22.068Z,5.63
2022-08-27T18:18:49.037Z,4.43
2022-08-27T18:21:25.270Z,5.22
2022-08-27T18:23:53.315Z,5.10
2022-08-27T18:26:23.213Z,4.85
2022-08-27T18:28:50.228Z,5.35
2022-08-27T18:31:19.840Z,5.05
2022-08-27T18:33:47.056Z,4.70
2022-08-27T18:36:15.323Z,5.40
2022-08-27T18:38:42.192Z,4.40
2022-08-27T18:41:09.475Z,5.22
2022-08-27T18:43:36.825Z,5.28
2022-08-27T18:46:04.824Z,5.45
2022-08-27T18:48:32.335Z,5.57
2022-08-27T18:51:01.749Z,5.07
2022-08-27T18:53:31.728Z,6.37
2022-08-27T18:55:59.038Z,6.13
2022-08-27T18:58:26.660Z,5.60
2022-08-27T19:00:56.843Z,6.10
2022-08-27T19:05:54.929Z,7.22
2022-08-27T19:08:23.862Z,6.13
2022-08-27T19:10:50.794Z,5.93
2022-08-27T19:13:17.778Z,5.80
2022-08-27T19:15:50.186Z,6.55
2022-08-27T19:18:18.311Z,8.25
2022-08-27T19:20:45.165Z,6.43
2022-08-27T19:23:12.195Z,5.53
2022-08-27T19:25:39.233Z,6.13
2022-08-27T19:28:06.376Z,6.38
2022-08-27T19:30:33.327Z,6.15
2022-08-27T19:33:00.174Z,7.47
2022-08-27T19:35:27.136Z,6.72
2022-08-27T19:37:54.064Z,7.90
2022-08-27T19:40:22.502Z,7.15
2022-08-27T19:42:50.318Z,7.18
2022-08-27T19:45:23.014Z,7.47
2022-08-27T19:47:50.761Z,7.22
2022-08-27T19:50:18.208Z,7.15
2022-08-27T19:52:47.414Z,6.70
2022-08-27T19:55:15.027Z,8.45
2022-08-27T19:57:43.348Z,7.55
2022-08-27T20:00:11.769Z,7.25
2022-08-27T20:02:39.059Z,6.60
2022-08-27T20:05:17.826Z,9.02
2022-08-27T20:07:47.624Z,7.85
2022-08-27T20:10:16.360Z,8.52
2022-08-27T20:12:43.808Z,9.05
2022-08-27T20:15:11.900Z,7.70
2022-08-27T20:17:39.896Z,7.70
2022-08-27T20:20:07.923Z,7.70
2022-08-27T20:22:34.777Z,8.13
2022-08-27T20:25:01.730Z,7.97
2022-08-27T20:27:28.678Z,8.85
2022-08-27T20:29:55.957Z,8.13
2022-08-27T20:32:27.914Z,8.00
2022-08-27T20:34:57.266Z,7.13
2022-08-27T20:37:24.197Z,8.55
2022-08-27T20:39:52.544Z,7.68
2022-08-27T20:42:20.126Z,7.72
2022-08-27T20:44:47.365Z,7.15
2022-08-27T20:47:16.000Z,8.18
2022-08-27T20:49:44.734Z,7.38
2022-08-27T20:52:13.356Z,8.27
2022-08-27T20:54:40.536Z,7.15
2022-08-27T20:57:08.762Z,7.03
2022-08-27T20:59:54.590Z,7.68
2022-08-27T21:02:27.064Z,8.15
2022-08-27T21:04:54.289Z,7.40
2022-08-27T21:07:23.360Z,7.65
2022-08-27T21:09:56.649Z,7.32
2022-08-27T21:12:26.017Z,7.20
2022-08-27T21:14:55.784Z,7.57
2022-08-27T21:19:51.904Z,6.72
2022-08-27T21:22:20.163Z,8.10
2022-08-27T21:24:47.677Z,7.22
2022-08-27T21:27:15.559Z,8.13
2022-08-27T21:29:44.772Z,7.30
2022-08-27T21:32:12.556Z,7.50
2022-08-27T21:34:39.803Z,7.00
2022-08-27T21:37:06.750Z,6.72
2022-08-27T21:39:34.457Z,6.82
2022-08-27T21:42:01.947Z,7.60
2022-08-27T21:44:30.552Z,6.80
2022-08-27T21:46:58.609Z,7.47
2022-08-27T21:49:25.489Z,6.38
2022-08-27T21:51:52.669Z,6.68
2022-08-27T21:54:19.756Z,6.60
2022-08-27T21:56:50.364Z,6.22
2022-08-27T21:59:17.391Z,6.90
2022-08-27T22:01:44.278Z,6.30
2022-08-27T22:04:11.363Z,6.38
2022-08-27T22:06:38.260Z,7.55
2022-08-27T22:09:05.140Z,7.25
2022-08-27T22:11:32.021Z,5.75
2022-08-27T22:13:58.934Z,7.45
2022-08-27T22:16:25.912Z,8.40
2022-08-27T22:18:54.659Z,6.82
2022-08-27T22:21:23.546Z,7.80
2022-08-27T22:23:51.517Z,7.13
2022-08-27T22:26:19.774Z,6.70
2022-08-27T22:28:46.894Z,6.20
2022-08-27T22:31:14.132Z,6.63
2022-08-27T22:33:41.128Z,7.05
2022-08-27T22:36:08.297Z,7.28
2022-08-27T22:38:35.217Z,7.75
2022-08-27T22:41:02.818Z,6.60
2022-08-27T22:43:29.718Z,6.47
2022-08-27T22:45:56.858Z,8.05
2022-08-27T22:48:23.765Z,7.05
2022-08-27T22:50:50.609Z,7.03
2022-08-27T22:53:17.472Z,6.85
2022-08-27T22:55:49.922Z,7.68
2022-08-27T22:58:17.969Z,7.18
2022-08-27T23:00:52.260Z,7.90
2022-08-27T23:03:20.270Z,8.27
2022-08-27T23:05:47.268Z,8.32
2022-08-27T23:08:14.756Z,7.05
2022-08-27T23:10:42.818Z,7.90
2022-08-27T23:13:11.000Z,7.25
2022-08-27T23:15:38.731Z,8.02
2022-08-27T23:18:05.942Z,10.40
2022-08-27T23:20:32.859Z,7.43
2022-08-27T23:22:59.739Z,7.15
2022-08-27T23:25:45.653Z,7.40
2022-08-27T23:28:15.204Z,8.25
2022-08-27T23:30:43.868Z,7.07
2022-08-27T23:33:11.375Z,7.30
2022-08-27T23:35:38.601Z,7.57
2022-08-27T23:38:05.631Z,6.28
2022-08-27T23:40:32.670Z,6.72
2022-08-27T23:42:59.621Z,7.20
2022-08-27T23:45:27.052Z,7.18
2022-08-27T23:47:53.972Z,7.07
2022-08-27T23:50:23.164Z,6.35
2022-08-27T23:53:01.775Z,6.97
2022-08-27T23:55:28.850Z,7.53
2022-08-27T23:57:57.773Z,7.78
